createdAt,value
2019-05-22T00:00:41.896Z,50.77
2019-05-22T00:03:20.223Z,51.10
2019-05-22T00:05:51.445Z,49.73
2019-05-22T00:08:22.189Z,50.57
2019-05-22T00:10:55.308Z,50.00
2019-05-22T00:13:34.764Z,52.67
2019-05-22T00:16:04.719Z,51.47
2019-05-22T00:18:35.761Z,52.57
2019-05-22T00:21:08.211Z,50.20
2019-05-22T00:23:40.829Z,51.50
2019-05-22T00:26:12.483Z,51.87
2019-05-22T00:28:43.605Z,51.50
2019-05-22T00:31:14.944Z,51.43
2019-05-22T00:33:44.986Z,50.13
2019-05-22T00:36:17.499Z,50.27
2019-05-22T00:38:48.559Z,49.80
2019-05-22T00:41:20.897Z,50.40
2019-05-22T00:43:51.649Z,52.47
2019-05-22T00:46:25.001Z,49.27
2019-05-22T00:48:54.857Z,49.93
2019-05-22T00:51:36.347Z,51.90
2019-05-22T00:54:16.519Z,53.70
2019-05-22T00:56:52.457Z,54.67
2019-05-22T00:59:27.344Z,54.23
2019-05-22T01:02:08.219Z,51.60
2019-05-22T01:04:42.309Z,51.53
2019-05-22T01:07:18.287Z,52.83
2019-05-22T01:10:01.477Z,51.87
2019-05-22T01:12:32.815Z,51.07
2019-05-22T01:15:07.422Z,49.87
2019-05-22T01:17:38.360Z,53.00
2019-05-22T01:20:11.874Z,49.97
2019-05-22T01:22:42.597Z,50.97
2019-05-22T01:25:16.417Z,51.13
2019-05-22T01:27:47.691Z,50.83
2019-05-22T01:30:22.389Z,51.33
2019-05-22T01:32:55.682Z,51.53
2019-05-22T01:35:31.119Z,52.20
2019-05-22T01:38:03.149Z,49.40
2019-05-22T01:41:05.980Z,48.80
2019-05-22T01:43:39.863Z,50.37
2019-05-22T01:46:12.285Z,49.03
2019-05-22T01:48:45.555Z,47.60
2019-05-22T01:51:20.139Z,48.17
2019-05-22T01:53:54.024Z,48.00
2019-05-22T01:56:27.249Z,47.63
2019-05-22T01:58:58.492Z,46.83
2019-05-22T02:01:30.478Z,48.77
2019-05-22T02:04:02.052Z,47.00
2019-05-22T02:06:35.142Z,48.27
2019-05-22T02:09:21.259Z,47.70
2019-05-22T02:11:56.794Z,47.60
2019-05-22T02:14:30.527Z,48.10
2019-05-22T02:17:03.067Z,49.90
2019-05-22T02:19:34.002Z,48.40
2019-05-22T02:22:07.137Z,47.30
2019-05-22T02:24:37.499Z,46.27
2019-05-22T02:27:08.296Z,49.27
2019-05-22T02:29:40.804Z,48.03
2019-05-22T02:32:12.910Z,46.40
2019-05-22T02:34:44.264Z,46.67
2019-05-22T02:37:16.043Z,47.50
2019-05-22T02:39:47.996Z,48.53
2019-05-22T02:42:26.276Z,48.07
2019-05-22T02:44:57.774Z,47.43
2019-05-22T02:47:29.664Z,48.37
2019-05-22T02:50:00.603Z,48.37
2019-05-22T02:52:30.817Z,48.10
2019-05-22T02:55:00.676Z,47.77
2019-05-22T02:57:32.128Z,47.53
2019-05-22T03:00:06.101Z,47.63
2019-05-22T03:02:53.709Z,46.60
2019-05-22T03:05:25.252Z,48.27
2019-05-22T03:07:55.154Z,48.40
2019-05-22T03:10:25.720Z,48.83
2019-05-22T03:12:58.379Z,48.33
2019-05-22T03:15:28.464Z,49.47
2019-05-22T03:18:02.892Z,49.33
2019-05-22T03:20:34.041Z,48.10
2019-05-22T03:23:39.845Z,46.90
2019-05-22T03:26:10.945Z,47.23
2019-05-22T03:28:42.325Z,47.47
2019-05-22T03:31:13.116Z,47.93
2019-05-22T03:33:43.484Z,48.23
2019-05-22T03:36:18.668Z,49.80
2019-05-22T03:38:50.713Z,47.83
2019-05-22T03:41:20.969Z,48.87
2019-05-22T03:43:53.345Z,50.73
2019-05-22T03:46:37.335Z,48.83
2019-05-22T03:49:28.217Z,49.03
2019-05-22T03:51:49.452Z,50.20
2019-05-22T03:54:20.650Z,51.80
2019-05-22T03:56:52.106Z,50.60
2019-05-22T03:59:22.556Z,51.03
2019-05-22T04:01:54.600Z,48.83
2019-05-22T04:04:37.429Z,50.93
2019-05-22T04:07:08.989Z,48.97
2019-05-22T04:09:43.154Z,51.23
2019-05-22T04:12:13.380Z,48.87
2019-05-22T04:14:44.175Z,49.00
2019-05-22T04:17:16.229Z,48.23
2019-05-22T04:19:51.077Z,49.33
2019-05-22T04:22:20.126Z,50.00
2019-05-22T04:24:51.598Z,49.47
2019-05-22T04:27:21.563Z,50.23
2019-05-22T04:29:54.053Z,49.90
2019-05-22T04:32:28.800Z,54.97
2019-05-22T04:34:58.956Z,49.87
2019-05-22T04:37:31.033Z,49.40
2019-05-22T04:40:24.760Z,49.67
2019-05-22T04:42:57.180Z,49.93
2019-05-22T04:45:29.246Z,49.67
2019-05-22T04:48:05.374Z,53.00
2019-05-22T04:50:35.327Z,52.13
2019-05-22T04:53:05.182Z,52.77
2019-05-22T04:55:35.452Z,52.57
2019-05-22T04:58:11.428Z,51.37
2019-05-22T05:00:41.519Z,51.97
2019-05-22T05:03:13.068Z,51.97
2019-05-22T05:05:51.084Z,51.90
2019-05-22T05:08:21.590Z,53.03
2019-05-22T05:10:53.199Z,51.90
2019-05-22T05:13:23.217Z,52.23
2019-05-22T05:15:52.872Z,51.43
2019-05-22T05:18:23.463Z,52.87
2019-05-22T05:20:53.270Z,54.60
2019-05-22T05:23:24.121Z,53.90
2019-05-22T05:25:53.862Z,54.07
2019-05-22T05:28:23.663Z,52.63
2019-05-22T05:30:54.403Z,54.33
2019-05-22T05:33:25.329Z,53.40
2019-05-22T05:35:56.003Z,54.20
2019-05-22T05:38:39.097Z,55.43
2019-05-22T05:41:09.677Z,54.70
2019-05-22T05:43:39.953Z,55.33
2019-05-22T05:46:09.636Z,54.37
2019-05-22T05:48:40.197Z,54.17
2019-05-22T05:51:16.773Z,54.23
2019-05-22T05:54:03.164Z,54.53
2019-05-22T05:56:35.709Z,55.17
2019-05-22T05:59:10.882Z,53.90
2019-05-22T06:01:42.573Z,58.60
2019-05-22T06:04:13.571Z,55.90
2019-05-22T06:06:56.296Z,56.27
2019-05-22T06:09:30.152Z,55.90
2019-05-22T06:12:05.462Z,56.53
2019-05-22T06:14:36.799Z,52.93
2019-05-22T06:17:47.298Z,54.63
2019-05-22T06:20:19.572Z,55.63
2019-05-22T06:23:23.340Z,56.30
2019-05-22T06:25:55.379Z,55.30
2019-05-22T06:28:28.711Z,58.00
2019-05-22T06:31:02.540Z,58.90
2019-05-22T06:33:35.013Z,56.37
2019-05-22T06:36:12.849Z,54.03
2019-05-22T06:39:00.137Z,56.43
2019-05-22T06:41:36.004Z,55.63
2019-05-22T06:44:42.922Z,55.43
2019-05-22T06:47:16.122Z,55.20
2019-05-22T06:49:49.269Z,55.67
2019-05-22T06:52:19.483Z,57.60
2019-05-22T06:54:49.964Z,55.53
2019-05-22T06:57:21.629Z,57.03
2019-05-22T07:00:11.256Z,55.93
2019-05-22T07:02:26.299Z,58.83
2019-05-22T07:04:56.797Z,60.50
2019-05-22T07:07:27.692Z,57.43
2019-05-22T07:09:58.599Z,55.80
2019-05-22T07:12:29.361Z,55.97
2019-05-22T07:15:11.319Z,58.37
2019-05-22T07:17:42.028Z,56.00
2019-05-22T07:20:13.806Z,58.13
2019-05-22T07:22:44.614Z,56.57
2019-05-22T07:25:14.965Z,58.87
2019-05-22T07:27:46.409Z,58.37
2019-05-22T07:30:17.060Z,55.23
2019-05-22T07:32:47.058Z,58.70
2019-05-22T07:35:18.570Z,58.00
2019-05-22T07:37:49.431Z,58.07
2019-05-22T07:40:21.334Z,58.70
2019-05-22T07:42:53.080Z,57.87
2019-05-22T07:45:27.207Z,56.90
2019-05-22T07:47:58.232Z,57.10
2019-05-22T07:50:31.448Z,58.10
2019-05-22T07:53:02.419Z,55.13
2019-05-22T07:55:36.060Z,56.40
2019-05-22T07:58:10.317Z,56.87
2019-05-22T08:00:45.062Z,56.73
2019-05-22T08:03:15.317Z,59.00
2019-05-22T08:05:55.086Z,58.43
2019-05-22T08:08:26.631Z,57.83
2019-05-22T08:10:58.651Z,58.83
2019-05-22T08:13:30.468Z,58.97
2019-05-22T08:16:00.649Z,59.57
2019-05-22T08:18:32.966Z,58.77
2019-05-22T08:21:03.174Z,59.30
2019-05-22T08:23:33.683Z,61.10
2019-05-22T08:26:04.939Z,61.87
2019-05-22T08:28:37.099Z,60.73
2019-05-22T08:31:10.400Z,60.53
2019-05-22T08:33:40.787Z,60.03
2019-05-22T08:36:12.066Z,65.15
2019-05-22T08:38:46.680Z,61.47
2019-05-22T08:41:20.910Z,60.00
2019-05-22T08:44:14.625Z,61.07
2019-05-22T08:46:27.929Z,59.60
2019-05-22T08:48:59.055Z,60.13
2019-05-22T08:51:29.481Z,62.37
2019-05-22T08:54:05.368Z,61.10
2019-05-22T08:56:39.206Z,60.70
2019-05-22T08:59:19.533Z,61.17
2019-05-22T09:01:42.739Z,61.43
2019-05-22T09:04:12.675Z,61.10
2019-05-22T09:06:42.849Z,62.10
2019-05-22T09:09:13.221Z,62.63
2019-05-22T09:11:43.186Z,61.37
2019-05-22T09:14:12.891Z,59.97
2019-05-22T09:16:44.019Z,61.00
2019-05-22T09:19:14.241Z,62.70
2019-05-22T09:21:44.778Z,60.60
2019-05-22T09:24:17.506Z,60.40
2019-05-22T09:26:50.803Z,58.77
2019-05-22T09:29:21.832Z,60.13
2019-05-22T09:31:51.792Z,61.53
2019-05-22T09:34:21.747Z,58.63
2019-05-22T09:36:51.513Z,59.83
2019-05-22T09:39:22.558Z,58.93
2019-05-22T09:41:52.267Z,60.73
2019-05-22T09:44:22.110Z,61.17
2019-05-22T09:46:52.065Z,61.63
2019-05-22T09:49:24.177Z,70.93
2019-05-22T09:51:55.090Z,68.33
2019-05-22T09:54:25.445Z,60.57
2019-05-22T09:56:55.813Z,60.87
2019-05-22T09:59:25.478Z,62.40
2019-05-22T10:01:55.630Z,61.50
2019-05-22T10:04:25.472Z,62.37
2019-05-22T10:06:55.341Z,62.37
2019-05-22T10:09:26.209Z,62.97
2019-05-22T10:11:56.289Z,63.70
2019-05-22T10:14:26.226Z,64.37
2019-05-22T10:16:56.471Z,63.10
2019-05-22T10:19:26.325Z,61.97
2019-05-22T10:21:56.881Z,63.20
2019-05-22T10:24:27.419Z,63.13
2019-05-22T10:26:59.085Z,63.93
2019-05-22T10:29:32.182Z,63.13
2019-05-22T10:32:00.231Z,62.40
2019-05-22T10:34:30.402Z,63.50
2019-05-22T10:37:00.450Z,66.73
2019-05-22T10:39:31.763Z,63.13
2019-05-22T10:42:01.459Z,62.60
2019-05-22T10:44:31.408Z,61.57
2019-05-22T10:47:01.272Z,63.93
2019-05-22T10:49:32.304Z,62.73
2019-05-22T10:52:02.078Z,63.37
2019-05-22T10:54:31.817Z,64.30
2019-05-22T10:57:01.926Z,64.43
2019-05-22T10:59:32.692Z,61.23
2019-05-22T11:02:02.584Z,63.10
2019-05-22T11:04:32.706Z,63.37
2019-05-22T11:07:03.572Z,61.03
2019-05-22T11:09:34.131Z,64.00
2019-05-22T11:12:06.835Z,63.67
2019-05-22T11:14:36.509Z,62.07
2019-05-22T11:17:07.155Z,63.73
2019-05-22T11:19:37.306Z,63.77
2019-05-22T11:22:08.949Z,64.63
2019-05-22T11:24:39.121Z,63.70
2019-05-22T11:27:09.395Z,64.00
2019-05-22T11:29:40.323Z,63.53
2019-05-22T11:32:11.513Z,62.93
2019-05-22T11:34:41.291Z,64.43
2019-05-22T11:37:11.218Z,66.20
2019-05-22T11:39:44.808Z,62.57
2019-05-22T11:42:17.929Z,69.17
2019-05-22T11:44:47.709Z,69.97
2019-05-22T11:47:18.548Z,68.67
2019-05-22T11:49:48.546Z,64.90
2019-05-22T11:52:18.991Z,61.70
2019-05-22T11:54:48.790Z,62.07
2019-05-22T11:57:20.134Z,64.50
2019-05-22T11:59:49.889Z,62.90
2019-05-22T12:02:22.232Z,62.87
2019-05-22T12:04:53.984Z,62.87
2019-05-22T12:07:24.629Z,61.83
2019-05-22T12:09:55.178Z,62.90
2019-05-22T12:12:26.644Z,63.10
2019-05-22T12:14:56.705Z,63.70
2019-05-22T12:17:37.505Z,65.93
2019-05-22T12:19:58.676Z,64.40
2019-05-22T12:22:30.363Z,72.53
2019-05-22T12:25:01.964Z,65.87
2019-05-22T12:27:32.061Z,68.07
2019-05-22T12:30:03.162Z,65.40
2019-05-22T12:32:34.303Z,64.67
2019-05-22T12:35:05.205Z,63.80
2019-05-22T12:37:35.862Z,63.90
2019-05-22T12:40:08.558Z,63.70
2019-05-22T12:42:39.490Z,66.37
2019-05-22T12:45:11.282Z,63.47
2019-05-22T12:47:43.246Z,65.23
2019-05-22T12:50:17.083Z,64.20
2019-05-22T12:52:51.244Z,63.67
2019-05-22T12:55:21.590Z,64.70
2019-05-22T12:57:54.308Z,65.00
2019-05-22T13:00:27.359Z,64.77
2019-05-22T13:03:00.835Z,64.30
2019-05-22T13:05:31.970Z,65.07
2019-05-22T13:08:03.000Z,66.13
2019-05-22T13:10:34.154Z,63.07
2019-05-22T13:13:04.538Z,63.63
2019-05-22T13:15:39.113Z,67.43
2019-05-22T13:18:13.032Z,65.33
2019-05-22T13:20:50.252Z,64.87
2019-05-22T13:23:24.997Z,65.30
2019-05-22T13:25:55.558Z,66.23
2019-05-22T13:28:28.634Z,65.03
2019-05-22T13:31:00.089Z,67.37
2019-05-22T13:33:31.599Z,65.93
2019-05-22T13:36:03.025Z,65.17
2019-05-22T13:38:33.468Z,65.77
2019-05-22T13:41:04.609Z,66.30
2019-05-22T13:43:38.182Z,64.93
2019-05-22T13:46:08.479Z,67.33
2019-05-22T13:48:38.653Z,66.57
2019-05-22T13:51:11.007Z,65.63
2019-05-22T13:53:45.505Z,67.70
2019-05-22T13:56:17.887Z,68.30
2019-05-22T13:58:49.895Z,67.23
2019-05-22T14:01:21.815Z,68.33
2019-05-22T14:03:53.159Z,68.40
2019-05-22T14:06:24.161Z,69.23
2019-05-22T14:08:54.440Z,68.30
2019-05-22T14:11:26.077Z,70.80
2019-05-22T14:13:55.738Z,68.93
2019-05-22T14:16:27.054Z,67.83
2019-05-22T14:18:56.735Z,67.73
2019-05-22T14:21:26.579Z,68.30
2019-05-22T14:23:56.485Z,69.13
2019-05-22T14:26:30.120Z,68.97
2019-05-22T14:29:00.272Z,70.00
2019-05-22T14:31:30.277Z,69.73
2019-05-22T14:34:00.469Z,70.70
2019-05-22T14:36:30.631Z,76.37
2019-05-22T14:39:00.531Z,74.20
2019-05-22T14:41:30.298Z,75.80
2019-05-22T14:44:00.449Z,72.93
2019-05-22T14:46:30.341Z,74.40
2019-05-22T14:49:00.144Z,73.37
2019-05-22T14:51:30.210Z,74.37
2019-05-22T14:54:00.514Z,72.17
2019-05-22T14:56:30.544Z,71.70
2019-05-22T14:59:01.195Z,72.13
2019-05-22T15:01:31.171Z,72.90
2019-05-22T15:04:02.333Z,74.97
2019-05-22T15:06:32.381Z,73.63
2019-05-22T15:09:02.088Z,71.43
2019-05-22T15:11:32.198Z,71.33
2019-05-22T15:14:02.045Z,71.20
2019-05-22T15:16:32.038Z,73.07
2019-05-22T15:19:01.705Z,75.40
2019-05-22T15:21:31.457Z,74.57
2019-05-22T15:24:02.033Z,73.20
2019-05-22T15:26:32.392Z,76.20
2019-05-22T15:29:02.138Z,74.77
2019-05-22T15:31:32.820Z,73.90
2019-05-22T15:34:05.554Z,78.20
2019-05-22T15:36:37.655Z,74.40
2019-05-22T15:39:11.171Z,74.30
2019-05-22T15:41:42.070Z,74.90
2019-05-22T15:44:12.533Z,80.63
2019-05-22T15:46:44.291Z,73.00
2019-05-22T15:49:16.340Z,74.73
2019-05-22T15:51:47.702Z,75.07
2019-05-22T15:54:19.359Z,72.43
2019-05-22T15:56:49.609Z,74.47
2019-05-22T15:59:21.823Z,75.03
2019-05-22T16:01:52.984Z,75.00
2019-05-22T16:04:23.727Z,73.57
2019-05-22T16:06:55.254Z,77.93
2019-05-22T16:09:27.326Z,74.77
2019-05-22T16:11:57.560Z,74.63
2019-05-22T16:14:31.378Z,75.07
2019-05-22T16:17:03.969Z,75.33
2019-05-22T16:19:34.405Z,75.47
2019-05-22T16:22:09.203Z,74.80
2019-05-22T16:24:41.119Z,75.63
2019-05-22T16:27:14.480Z,76.20
2019-05-22T16:29:46.105Z,76.47
2019-05-22T16:32:19.153Z,75.37
2019-05-22T16:34:49.096Z,74.53
2019-05-22T16:37:20.046Z,75.20
2019-05-22T16:39:51.624Z,75.90
2019-05-22T16:42:22.683Z,78.07
2019-05-22T16:44:52.823Z,77.87
2019-05-22T16:47:24.117Z,75.23
2019-05-22T16:49:54.859Z,74.50
2019-05-22T16:52:28.435Z,75.60
2019-05-22T16:54:58.808Z,76.07
2019-05-22T16:57:31.684Z,74.10
2019-05-22T17:00:02.242Z,73.33
2019-05-22T17:02:34.860Z,73.03
2019-05-22T17:05:07.883Z,74.20
2019-05-22T17:07:39.902Z,76.00
2019-05-22T17:10:12.026Z,73.37
2019-05-22T17:13:03.139Z,80.63
2019-05-22T17:15:35.485Z,80.90
2019-05-22T17:18:05.702Z,72.40
2019-05-22T17:20:36.877Z,73.27
2019-05-22T17:23:07.401Z,78.60
2019-05-22T17:25:38.041Z,76.07
2019-05-22T17:28:09.466Z,77.33
2019-05-22T17:30:40.214Z,72.20
2019-05-22T17:33:11.364Z,72.20
2019-05-22T17:35:42.109Z,74.03
2019-05-22T17:38:17.089Z,80.77
2019-05-22T17:40:48.292Z,80.80
2019-05-22T17:43:19.662Z,75.17
2019-05-22T17:45:51.493Z,76.87
2019-05-22T17:48:22.153Z,75.57
2019-05-22T17:50:53.314Z,71.47
2019-05-22T17:53:23.876Z,77.83
2019-05-22T17:55:54.417Z,79.97
2019-05-22T17:58:29.482Z,84.20
2019-05-22T18:00:57.960Z,73.37
2019-05-22T18:03:28.005Z,69.10
2019-05-22T18:05:58.981Z,76.70
2019-05-22T18:08:30.062Z,72.33
2019-05-22T18:11:03.879Z,72.33
2019-05-22T18:13:38.208Z,82.70
2019-05-22T18:16:10.052Z,79.80
2019-05-22T18:18:40.562Z,72.67
2019-05-22T18:21:11.705Z,72.30
2019-05-22T18:23:42.733Z,74.83
2019-05-22T18:26:13.309Z,80.00
2019-05-22T18:28:44.896Z,79.03
2019-05-22T18:31:16.687Z,74.00
2019-05-22T18:33:47.830Z,78.20
2019-05-22T18:36:18.687Z,72.37
2019-05-22T18:38:49.281Z,81.10
2019-05-22T18:41:21.186Z,82.93
2019-05-22T18:43:52.601Z,75.13
2019-05-22T18:46:22.962Z,71.50
2019-05-22T18:48:53.767Z,72.27
2019-05-22T18:51:25.240Z,70.00
2019-05-22T18:53:58.818Z,74.60
2019-05-22T18:56:30.380Z,71.03
2019-05-22T18:59:01.252Z,68.67
2019-05-22T19:01:33.026Z,69.13
2019-05-22T19:04:03.756Z,74.30
2019-05-22T19:06:34.540Z,72.00
2019-05-22T19:09:06.495Z,67.70
2019-05-22T19:11:37.520Z,73.27
2019-05-22T19:14:08.935Z,77.83
2019-05-22T19:16:40.344Z,72.13
2019-05-22T19:19:11.534Z,76.83
2019-05-22T19:21:42.639Z,77.07
2019-05-22T19:24:13.487Z,77.50
2019-05-22T19:26:43.922Z,77.57
2019-05-22T19:29:14.974Z,78.90
2019-05-22T19:31:45.443Z,71.10
2019-05-22T19:34:15.718Z,74.77
2019-05-22T19:36:47.497Z,71.03
2019-05-22T19:39:17.910Z,72.13
2019-05-22T19:42:01.338Z,67.83
2019-05-22T19:44:19.934Z,68.57
2019-05-22T19:46:52.887Z,64.93
2019-05-22T19:49:25.783Z,66.63
2019-05-22T19:51:58.076Z,63.90
2019-05-22T19:54:29.671Z,65.50
2019-05-22T19:57:04.771Z,65.97
2019-05-22T19:59:35.604Z,66.97
2019-05-22T20:02:07.724Z,62.80
2019-05-22T20:04:39.008Z,64.17
2019-05-22T20:07:10.836Z,61.23
2019-05-22T20:09:40.560Z,62.87
2019-05-22T20:12:12.371Z,62.00
2019-05-22T20:14:42.093Z,61.93
2019-05-22T20:17:13.535Z,64.80
2019-05-22T20:19:43.842Z,63.13
2019-05-22T20:22:15.213Z,62.50
2019-05-22T20:24:45.124Z,62.77
2019-05-22T20:27:15.563Z,61.97
2019-05-22T20:29:46.348Z,62.70
2019-05-22T20:32:16.395Z,63.20
2019-05-22T20:34:47.833Z,61.43
2019-05-22T20:37:18.388Z,61.97
2019-05-22T20:39:48.284Z,61.60
2019-05-22T20:42:18.215Z,62.13
2019-05-22T20:44:48.608Z,62.10
2019-05-22T20:47:22.503Z,60.60
2019-05-22T20:49:52.518Z,62.13
2019-05-22T20:52:22.957Z,60.63
2019-05-22T20:54:54.972Z,61.17
2019-05-22T20:57:26.454Z,63.20
2019-05-22T20:59:58.306Z,64.50
2019-05-22T21:02:30.624Z,67.50
2019-05-22T21:05:01.014Z,62.17
2019-05-22T21:07:36.106Z,62.53
2019-05-22T21:10:09.162Z,61.77
2019-05-22T21:12:39.306Z,64.03
2019-05-22T21:15:10.152Z,62.37
2019-05-22T21:17:42.089Z,60.13
2019-05-22T21:20:14.827Z,61.73
2019-05-22T21:22:45.970Z,59.17
2019-05-22T21:25:16.546Z,63.00
2019-05-22T21:27:46.797Z,62.67
2019-05-22T21:30:17.588Z,64.07
2019-05-22T21:32:47.919Z,62.43
2019-05-22T21:35:21.402Z,66.20
2019-05-22T21:37:52.029Z,63.50
2019-05-22T21:40:25.301Z,64.37
2019-05-22T21:42:56.546Z,62.67
2019-05-22T21:45:26.899Z,62.63
2019-05-22T21:47:57.114Z,65.27
2019-05-22T21:50:27.394Z,64.03
2019-05-22T21:52:58.260Z,61.27
2019-05-22T21:55:30.596Z,60.10
2019-05-22T21:58:01.192Z,61.83
2019-05-22T22:00:40.069Z,62.00
2019-05-22T22:03:19.436Z,62.10
2019-05-22T22:05:49.431Z,58.43
2019-05-22T22:08:19.410Z,59.50
2019-05-22T22:10:49.767Z,56.50
2019-05-22T22:13:21.533Z,62.87
2019-05-22T22:15:51.698Z,58.37
2019-05-22T22:18:24.753Z,58.33
2019-05-22T22:20:57.467Z,58.87
2019-05-22T22:23:29.493Z,59.50
2019-05-22T22:26:00.626Z,61.13
2019-05-22T22:28:31.513Z,57.63
2019-05-22T22:31:08.315Z,58.23
2019-05-22T22:33:40.482Z,60.77
2019-05-22T22:36:11.418Z,59.13
2019-05-22T22:38:43.095Z,57.63
2019-05-22T22:41:14.180Z,60.60
2019-05-22T22:43:49.220Z,62.00
2019-05-22T22:46:36.291Z,61.23
2019-05-22T22:49:09.119Z,59.53
2019-05-22T22:51:39.067Z,61.23
2019-05-22T22:54:10.247Z,60.43
2019-05-22T22:56:41.072Z,63.67
2019-05-22T22:59:15.029Z,60.73
2019-05-22T23:01:50.714Z,62.93
2019-05-22T23:04:24.518Z,63.13
2019-05-22T23:06:58.774Z,60.50
2019-05-22T23:09:31.913Z,60.73
2019-05-22T23:12:04.324Z,59.07
2019-05-22T23:14:36.489Z,64.43
2019-05-22T23:17:07.137Z,60.70
2019-05-22T23:19:36.073Z,64.10
2019-05-22T23:22:05.760Z,61.73
2019-05-22T23:24:39.246Z,62.03
2019-05-22T23:27:10.799Z,60.33
2019-05-22T23:29:42.366Z,63.00
2019-05-22T23:32:14.423Z,61.40
2019-05-22T23:34:45.398Z,59.80
2019-05-22T23:37:18.669Z,62.67
2019-05-22T23:39:53.113Z,59.13
2019-05-22T23:42:28.614Z,61.47
2019-05-22T23:45:01.340Z,61.93
2019-05-22T23:47:35.127Z,59.30
2019-05-22T23:50:07.438Z,59.43
2019-05-22T23:52:38.174Z,61.17
2019-05-22T23:55:10.480Z,61.47
2019-05-22T23:57:42.330Z,62.90
